createdAt,value
2022-08-10T00:00:06.598Z,101715.88
2022-08-10T00:02:34.775Z,101719.31
2022-08-10T00:05:04.082Z,101724.56
2022-08-10T00:07:32.003Z,101721.03
2022-08-10T00:10:00.023Z,101719.25
2022-08-10T00:12:31.851Z,101718.34
2022-08-10T00:15:44.058Z,101715.66
2022-08-10T00:18:10.158Z,101724.34
2022-08-10T00:20:40.051Z,101718.25
2022-08-10T00:23:07.899Z,101712.09
2022-08-10T00:25:36.352Z,101714.66
2022-08-10T00:28:06.659Z,101719.03
2022-08-10T00:30:34.762Z,101711.94
2022-08-10T00:33:02.705Z,101711.13
2022-08-10T00:35:31.025Z,101709.31
2022-08-10T00:37:58.828Z,101709.34
2022-08-10T00:40:37.082Z,101707.53
2022-08-10T00:43:07.646Z,101699.63
2022-08-10T00:45:36.180Z,101694.34
2022-08-10T00:48:04.942Z,101700.44
2022-08-10T00:50:33.218Z,101703.00
2022-08-10T00:53:01.842Z,101699.47
2022-08-10T00:55:30.350Z,101696.84
2022-08-10T00:57:59.120Z,101704.69
2022-08-10T01:00:30.106Z,101702.88
2022-08-10T01:02:58.392Z,101700.19
2022-08-10T01:05:26.779Z,101696.66
2022-08-10T01:08:20.417Z,101695.78
2022-08-10T01:11:02.848Z,101692.25
2022-08-10T01:13:41.059Z,101686.97
2022-08-10T01:16:20.615Z,101690.47
2022-08-10T01:18:56.412Z,101686.94
2022-08-10T01:22:20.243Z,101687.81
2022-08-10T01:25:25.660Z,101681.69
2022-08-10T01:28:08.039Z,101686.03
2022-08-10T01:30:40.568Z,101679.88
2022-08-10T01:33:13.302Z,101681.63
2022-08-10T01:35:55.597Z,101673.72
2022-08-10T01:38:28.949Z,101678.06
2022-08-10T01:41:05.395Z,101680.66
2022-08-10T01:43:40.857Z,101677.13
2022-08-10T01:46:14.278Z,101678.84
2022-08-10T01:48:51.155Z,101675.34
2022-08-10T01:51:25.250Z,101675.34
2022-08-10T01:53:58.779Z,101667.41
2022-08-10T01:56:33.339Z,101669.97
2022-08-10T01:59:07.635Z,101667.34
2022-08-10T02:01:43.357Z,101662.06
2022-08-10T02:04:16.071Z,101665.50
2022-08-10T02:06:49.571Z,101664.56
2022-08-10T02:09:22.289Z,101665.44
2022-08-10T02:12:05.403Z,101663.69
2022-08-10T02:14:45.396Z,101665.44
2022-08-10T02:18:00.700Z,101663.63
2022-08-10T02:20:20.210Z,101670.56
2022-08-10T02:22:55.614Z,101668.81
2022-08-10T02:25:39.729Z,101666.19
2022-08-10T02:28:27.276Z,101672.31
2022-08-10T02:31:06.384Z,101672.22
2022-08-10T02:33:57.536Z,101674.00
2022-08-10T02:36:34.951Z,101673.19
2022-08-10T02:39:07.391Z,101682.81
2022-08-10T02:45:14.108Z,101686.25
2022-08-10T02:45:22.577Z,101681.00
2022-08-10T02:47:51.641Z,101684.44
2022-08-10T02:50:28.195Z,101685.16
2022-08-10T02:53:05.080Z,101686.09
2022-08-10T02:55:42.728Z,101686.88
2022-08-10T02:58:18.257Z,101684.31
2022-08-10T03:00:51.897Z,101682.56
2022-08-10T03:03:26.098Z,101682.44
2022-08-10T03:06:00.879Z,101680.66
2022-08-10T03:08:36.352Z,101684.09
2022-08-10T03:11:07.767Z,101684.00
2022-08-10T03:13:37.030Z,101685.69
2022-08-10T03:16:07.901Z,101684.81
2022-08-10T03:18:38.972Z,101690.00
2022-08-10T03:21:12.052Z,101684.69
2022-08-10T03:23:42.851Z,101694.31
2022-08-10T03:26:17.513Z,101689.88
2022-08-10T03:28:49.049Z,101688.91
2022-08-10T03:31:18.140Z,101694.09
2022-08-10T03:33:47.927Z,101688.72
2022-08-10T03:36:39.916Z,101682.47
2022-08-10T03:39:05.371Z,101693.81
2022-08-10T03:41:39.090Z,101692.91
2022-08-10T03:44:10.576Z,101685.00
2022-08-10T03:46:43.046Z,101681.47
2022-08-10T03:49:12.928Z,101683.97
2022-08-10T03:51:42.874Z,101682.97
2022-08-10T03:54:12.535Z,101678.50
2022-08-10T03:56:41.352Z,101678.50
2022-08-10T03:59:15.032Z,101678.31
2022-08-10T04:02:43.822Z,101676.53
2022-08-10T04:04:33.686Z,101687.78
2022-08-10T04:07:04.733Z,101680.75
2022-08-10T04:09:53.987Z,101680.78
2022-08-10T04:12:23.111Z,101677.19
2022-08-10T04:14:53.117Z,101679.81
2022-08-10T04:17:59.287Z,101676.22
2022-08-10T04:20:35.650Z,101685.88
2022-08-10T04:23:09.454Z,101680.69
2022-08-10T04:25:40.106Z,101684.22
2022-08-10T04:28:10.068Z,101685.00
2022-08-10T04:30:40.786Z,101682.34
2022-08-10T04:33:13.776Z,101687.66
2022-08-10T04:35:45.229Z,101680.78
2022-08-10T04:38:17.065Z,101685.22
2022-08-10T04:40:46.898Z,101684.38
2022-08-10T04:43:14.875Z,101691.41
2022-08-10T04:45:50.326Z,101682.00
2022-08-10T04:48:43.039Z,101687.38
2022-08-10T04:51:17.170Z,101684.81
2022-08-10T04:54:02.984Z,101683.19
2022-08-10T04:56:32.415Z,101689.44
2022-08-10T04:59:00.911Z,101676.44
2022-08-10T05:02:31.665Z,101678.41
2022-08-10T05:04:36.677Z,101680.38
2022-08-10T05:07:10.613Z,101678.75
2022-08-10T05:10:03.787Z,101678.00
2022-08-10T05:12:29.623Z,101677.31
2022-08-10T05:14:58.455Z,101675.84
2022-08-10T05:17:27.340Z,101683.91
2022-08-10T05:20:03.059Z,101683.28
2022-08-10T05:22:36.224Z,101678.31
2022-08-10T05:25:09.329Z,101678.59
2022-08-10T05:27:39.913Z,101685.75
2022-08-10T05:30:11.248Z,101675.38
2022-08-10T05:32:57.322Z,101679.94
2022-08-10T05:35:51.855Z,101679.28
2022-08-10T05:38:21.129Z,101684.72
2022-08-10T05:40:50.526Z,101681.28
2022-08-10T05:43:20.900Z,101683.03
2022-08-10T05:46:18.594Z,101681.38
2022-08-10T05:48:58.895Z,101684.91
2022-08-10T05:51:29.997Z,101682.34
2022-08-10T05:54:04.051Z,101681.50
2022-08-10T05:56:53.871Z,101690.31
2022-08-10T06:00:33.687Z,101687.69
2022-08-10T06:02:32.984Z,101684.22
2022-08-10T06:05:11.807Z,101676.28
2022-08-10T06:07:46.616Z,101678.03
2022-08-10T06:10:35.334Z,101678.06
2022-08-10T06:13:30.207Z,101676.25
2022-08-10T06:16:06.904Z,101673.53
2022-08-10T06:18:36.659Z,101684.94
2022-08-10T06:21:06.775Z,101688.34
2022-08-10T06:23:36.636Z,101687.38
2022-08-10T06:26:13.400Z,101682.94
2022-08-10T06:29:02.313Z,101693.38
2022-08-10T06:31:48.520Z,101694.13
2022-08-10T06:34:25.918Z,101691.28
2022-08-10T06:36:59.283Z,101695.56
2022-08-10T06:39:36.368Z,101699.88
2022-08-10T06:42:17.891Z,101691.84
2022-08-10T06:44:56.705Z,101699.44
2022-08-10T06:47:37.201Z,101701.06
2022-08-10T06:50:14.009Z,101700.88
2022-08-10T06:52:52.206Z,101699.97
2022-08-10T06:55:27.356Z,101692.88
2022-08-10T06:58:11.819Z,101701.28
2022-08-10T07:00:43.896Z,101701.94
2022-08-10T07:03:16.090Z,101692.59
2022-08-10T07:05:51.400Z,101691.88
2022-08-10T07:08:25.339Z,101689.66
2022-08-10T07:10:55.230Z,101696.50
2022-08-10T07:14:16.569Z,101685.59
2022-08-10T07:16:17.672Z,101681.06
2022-08-10T07:18:49.780Z,101675.75
2022-08-10T07:21:22.052Z,101683.25
2022-08-10T07:23:58.478Z,101678.91
2022-08-10T07:26:31.417Z,101692.53
2022-08-10T07:29:00.686Z,101685.94
2022-08-10T07:31:55.891Z,101683.59
2022-08-10T07:34:29.139Z,101686.13
2022-08-10T07:37:02.910Z,101690.19
2022-08-10T07:40:03.149Z,101686.47
2022-08-10T07:42:27.762Z,101689.50
2022-08-10T07:45:01.573Z,101688.22
2022-08-10T07:47:52.643Z,101681.00
2022-08-10T07:50:25.581Z,101689.66
2022-08-10T07:53:00.084Z,101683.94
2022-08-10T07:56:04.252Z,101688.41
2022-08-10T07:58:22.283Z,101691.41
2022-08-10T08:00:54.048Z,101690.75
2022-08-10T08:03:28.160Z,101682.56
2022-08-10T08:06:02.923Z,101678.59
2022-08-10T08:08:37.586Z,101677.03
2022-08-10T08:11:10.253Z,101681.13
2022-08-10T08:13:56.233Z,101679.63
2022-08-10T08:16:25.117Z,101677.81
2022-08-10T08:24:10.688Z,101674.06
2022-08-10T08:24:38.034Z,101681.50
2022-08-10T08:27:07.604Z,101683.19
2022-08-10T08:29:41.283Z,101680.25
2022-08-10T08:32:11.688Z,101683.16
2022-08-10T08:34:44.696Z,101684.41
2022-08-10T08:38:29.706Z,101680.59
2022-08-10T08:40:12.016Z,101684.53
2022-08-10T08:43:28.476Z,101688.28
2022-08-10T08:46:28.585Z,101682.66
2022-08-10T08:50:05.240Z,101679.19
2022-08-10T08:52:39.183Z,101678.47
2022-08-10T08:56:04.901Z,101676.75
2022-08-10T08:58:40.815Z,101676.97
2022-08-10T09:01:40.418Z,101666.19
2022-08-10T09:04:34.101Z,101656.13
2022-08-10T09:08:01.979Z,101658.44
2022-08-10T09:10:54.762Z,101657.16
2022-08-10T09:13:31.480Z,101658.41
2022-08-10T09:16:20.622Z,101652.63
2022-08-10T09:19:01.635Z,101657.31
2022-08-10T09:21:43.252Z,101651.34
2022-08-10T09:24:45.201Z,101657.78
2022-08-10T09:27:21.413Z,101642.28
2022-08-10T09:29:55.564Z,101644.50
2022-08-10T09:36:17.347Z,101640.38
2022-08-10T09:36:21.930Z,101644.38
2022-08-10T09:38:45.597Z,101644.13
2022-08-10T09:41:32.908Z,101638.88
2022-08-10T09:44:14.874Z,101638.00
2022-08-10T09:47:11.837Z,101634.63
2022-08-10T09:50:04.898Z,101630.13
2022-08-10T09:52:49.811Z,101634.28
2022-08-10T09:56:19.250Z,101634.28
2022-08-10T09:59:29.178Z,101625.47
2022-08-10T10:02:03.140Z,101616.72
2022-08-10T10:04:47.429Z,101607.56
2022-08-10T10:07:26.716Z,101611.69
2022-08-10T10:10:03.879Z,101613.56
2022-08-10T10:12:51.550Z,101612.72
2022-08-10T10:15:34.890Z,101607.16
2022-08-10T10:18:22.209Z,101603.31
2022-08-10T10:21:03.112Z,101610.06
2022-08-10T10:24:15.824Z,101603.91
2022-08-10T10:26:48.651Z,101591.72
2022-08-10T10:29:57.928Z,101596.78
2022-08-10T10:32:38.277Z,101589.72
2022-08-10T10:35:23.481Z,101580.59
2022-08-10T10:38:01.806Z,101582.78
2022-08-10T10:40:44.217Z,101576.03
2022-08-10T10:43:34.516Z,101570.34
2022-08-10T10:46:23.326Z,101569.41
2022-08-10T10:49:18.858Z,101569.13
2022-08-10T10:52:01.861Z,101566.72
2022-08-10T10:54:41.535Z,101572.50
2022-08-10T10:57:22.643Z,101577.38
2022-08-10T11:00:12.693Z,101581.56
2022-08-10T11:03:01.173Z,101564.00
2022-08-10T11:05:42.040Z,101563.97
2022-08-10T11:08:18.601Z,101555.44
2022-08-10T11:10:53.143Z,101559.22
2022-08-10T11:14:25.673Z,101547.44
2022-08-10T11:16:35.548Z,101554.28
2022-08-10T11:19:16.948Z,101542.00
2022-08-10T11:22:06.872Z,101546.75
2022-08-10T11:24:52.259Z,101540.63
2022-08-10T11:27:33.478Z,101541.91
2022-08-10T11:30:06.938Z,101539.56
2022-08-10T11:32:54.874Z,101534.13
2022-08-10T11:35:34.743Z,101530.38
2022-08-10T11:38:31.925Z,101529.16
2022-08-10T11:42:08.839Z,101526.31
2022-08-10T11:44:17.698Z,101534.56
2022-08-10T11:46:57.466Z,101527.56
2022-08-10T11:49:35.690Z,101512.75
2022-08-10T11:52:13.361Z,101531.91
2022-08-10T11:54:50.766Z,101521.34
2022-08-10T11:57:21.173Z,101525.06
2022-08-10T11:59:59.275Z,101521.38
2022-08-10T12:02:36.324Z,101514.88
2022-08-10T12:05:10.890Z,101516.06
2022-08-10T12:08:54.813Z,101520.09
2022-08-10T12:10:40.256Z,101517.88
2022-08-10T12:13:15.177Z,101519.59
2022-08-10T12:15:55.885Z,101510.88
2022-08-10T12:18:32.740Z,101506.38
2022-08-10T12:21:11.616Z,101501.44
2022-08-10T12:24:02.498Z,101508.84
2022-08-10T12:26:44.706Z,101505.91
2022-08-10T12:29:25.453Z,101503.25
2022-08-10T12:32:01.058Z,101495.13
2022-08-10T12:34:37.256Z,101501.28
2022-08-10T12:37:17.476Z,101499.66
2022-08-10T12:44:05.774Z,101496.28
2022-08-10T12:46:09.654Z,101499.03
2022-08-10T12:48:54.219Z,101489.16
2022-08-10T12:51:30.309Z,101478.78
2022-08-10T12:54:09.195Z,101479.75
2022-08-10T12:56:45.534Z,101473.31
2022-08-10T12:59:16.868Z,101475.78
2022-08-10T13:02:09.509Z,101478.31
2022-08-10T13:04:43.927Z,101470.72
2022-08-10T13:08:25.502Z,101471.22
2022-08-10T13:10:03.215Z,101474.00
2022-08-10T13:12:40.351Z,101458.44
2022-08-10T13:15:46.064Z,101456.50
2022-08-10T13:18:18.894Z,101454.25
2022-08-10T13:20:54.496Z,101451.44
2022-08-10T13:23:27.025Z,101453.06
2022-08-10T13:25:59.590Z,101453.66
2022-08-10T13:28:45.666Z,101441.84
2022-08-10T13:31:21.473Z,101443.50
2022-08-10T13:34:43.748Z,101429.00
2022-08-10T13:37:14.306Z,101424.09
2022-08-10T13:39:59.714Z,101427.28
2022-08-10T13:42:36.088Z,101420.09
2022-08-10T13:45:12.205Z,101418.16
2022-08-10T13:47:48.639Z,101420.88
2022-08-10T13:50:35.000Z,101412.72
2022-08-10T13:53:13.896Z,101415.69
2022-08-10T13:55:55.183Z,101406.56
2022-08-10T13:58:29.364Z,101410.78
2022-08-10T14:01:01.881Z,101409.69
2022-08-10T14:03:38.216Z,101411.19
2022-08-10T14:06:13.491Z,101404.09
2022-08-10T14:08:47.270Z,101402.88
2022-08-10T14:11:19.228Z,101408.38
2022-08-10T14:13:56.312Z,101393.47
2022-08-10T14:16:28.428Z,101400.25
2022-08-10T14:19:03.465Z,101403.09
2022-08-10T14:21:39.751Z,101400.50
2022-08-10T14:24:22.982Z,101395.44
2022-08-10T14:27:01.288Z,101397.06
2022-08-10T14:29:33.606Z,101405.22
2022-08-10T14:32:08.367Z,101394.66
2022-08-10T14:35:00.504Z,101376.63
2022-08-10T14:37:37.591Z,101383.41
2022-08-10T14:40:13.353Z,101387.50
2022-08-10T14:42:47.160Z,101380.19
2022-08-10T14:45:23.876Z,101377.00
2022-08-10T14:48:01.214Z,101374.31
2022-08-10T14:50:33.495Z,101375.13
2022-08-10T14:53:10.135Z,101366.09
2022-08-10T14:55:59.698Z,101370.44
2022-08-10T14:58:33.345Z,101361.25
2022-08-10T15:01:04.734Z,101355.69
2022-08-10T15:04:01.340Z,101363.72
2022-08-10T15:06:37.901Z,101367.75
2022-08-10T15:09:19.840Z,101361.53
2022-08-10T15:12:14.170Z,101353.47
2022-08-10T15:14:46.192Z,101364.47
2022-08-10T15:17:26.926Z,101356.41
2022-08-10T15:20:04.489Z,101354.00
2022-08-10T15:22:54.291Z,101352.03
2022-08-10T15:25:27.298Z,101362.84
2022-08-10T15:28:05.780Z,101345.88
2022-08-10T15:30:42.519Z,101351.25
2022-08-10T15:33:57.399Z,101353.06
2022-08-10T15:36:43.142Z,101346.72
2022-08-10T15:40:20.914Z,101355.22
2022-08-10T15:42:21.003Z,101345.84
2022-08-10T15:44:54.198Z,101359.78
2022-08-10T15:47:45.957Z,101352.03
2022-08-10T15:50:21.712Z,101343.75
2022-08-10T15:53:03.909Z,101343.03
2022-08-10T15:55:41.123Z,101341.81
2022-08-10T15:58:37.677Z,101344.97
2022-08-10T16:02:13.289Z,101344.88
2022-08-10T16:04:09.056Z,101334.72
2022-08-10T16:06:45.894Z,101338.16
2022-08-10T16:10:24.091Z,101339.38
2022-08-10T16:12:29.628Z,101339.69
2022-08-10T16:15:07.996Z,101348.00
2022-08-10T16:17:54.752Z,101331.28
2022-08-10T16:20:31.331Z,101337.94
2022-08-10T16:23:04.465Z,101330.53
2022-08-10T16:25:51.338Z,101333.22
2022-08-10T16:28:32.614Z,101329.09
2022-08-10T16:31:04.771Z,101334.19
2022-08-10T16:33:53.851Z,101333.81
2022-08-10T16:36:32.142Z,101339.94
2022-08-10T16:39:02.535Z,101335.41
2022-08-10T16:42:04.251Z,101328.22
2022-08-10T16:44:28.663Z,101325.50
2022-08-10T16:47:00.254Z,101329.72
2022-08-10T16:49:39.832Z,101322.16
2022-08-10T16:52:11.057Z,101315.97
2022-08-10T16:54:42.898Z,101315.97
2022-08-10T16:57:17.482Z,101314.44
2022-08-10T16:59:49.058Z,101316.25
2022-08-10T17:02:22.597Z,101314.84
2022-08-10T17:04:53.765Z,101305.81
2022-08-10T17:07:30.577Z,101311.38
2022-08-10T17:10:07.767Z,101302.16
2022-08-10T17:12:40.096Z,101300.06
2022-08-10T17:15:11.727Z,101301.34
2022-08-10T17:17:47.853Z,101297.25
2022-08-10T17:20:31.666Z,101303.59
2022-08-10T17:23:06.488Z,101300.75
2022-08-10T17:25:45.976Z,101305.09
2022-08-10T17:28:34.585Z,101304.63
2022-08-10T17:31:23.674Z,101302.94
2022-08-10T17:34:02.339Z,101300.59
2022-08-10T17:36:37.385Z,101315.59
2022-08-10T17:39:09.483Z,101298.97
2022-08-10T17:41:47.805Z,101304.94
2022-08-10T17:44:18.486Z,101292.78
2022-08-10T17:46:49.106Z,101294.09
2022-08-10T17:49:20.724Z,101298.13
2022-08-10T17:51:56.408Z,101301.41
2022-08-10T17:54:30.091Z,101300.97
2022-08-10T17:57:01.708Z,101300.78
2022-08-10T17:59:34.106Z,101304.78
2022-08-10T18:02:12.710Z,101302.66
2022-08-10T18:04:48.646Z,101300.59
2022-08-10T18:07:22.333Z,101298.75
2022-08-10T18:09:53.733Z,101303.91
2022-08-10T18:12:34.540Z,101304.28
2022-08-10T18:15:13.676Z,101313.69
2022-08-10T18:17:55.509Z,101308.47
2022-08-10T18:20:34.557Z,101313.13
2022-08-10T18:23:03.535Z,101312.81
2022-08-10T18:25:36.518Z,101311.31
2022-08-10T18:28:12.532Z,101322.34
2022-08-10T18:30:48.863Z,101320.72
2022-08-10T18:33:28.495Z,101318.56
2022-08-10T18:36:10.095Z,101318.25
2022-08-10T18:38:43.797Z,101323.22
2022-08-10T18:41:21.926Z,101318.91
2022-08-10T18:44:07.543Z,101324.69
2022-08-10T18:46:46.233Z,101329.63
2022-08-10T18:49:28.675Z,101326.28
2022-08-10T18:52:03.679Z,101327.44
2022-08-10T18:54:44.886Z,101329.53
2022-08-10T18:57:30.999Z,101333.31
2022-08-10T19:00:13.086Z,101328.19
2022-08-10T19:03:11.392Z,101328.50
2022-08-10T19:06:05.937Z,101325.69
2022-08-10T19:09:04.644Z,101327.91
2022-08-10T19:12:01.598Z,101330.03
2022-08-10T19:14:37.196Z,101321.53
2022-08-10T19:17:20.162Z,101347.34
2022-08-10T19:20:10.643Z,101344.91
2022-08-10T19:22:51.759Z,101347.75
2022-08-10T19:26:39.303Z,101341.84
2022-08-10T19:28:30.724Z,101355.50
2022-08-10T19:31:09.971Z,101347.88
2022-08-10T19:33:53.302Z,101350.94
2022-08-10T19:37:05.531Z,101353.91
2022-08-10T19:39:52.607Z,101349.84
2022-08-10T19:42:33.667Z,101347.44
2022-08-10T19:45:55.382Z,101337.84
2022-08-10T19:48:18.895Z,101341.44
2022-08-10T19:50:57.799Z,101338.09
2022-08-10T19:53:41.070Z,101337.41
2022-08-10T19:56:34.133Z,101337.72
2022-08-10T19:59:16.925Z,101342.34
2022-08-10T20:02:09.325Z,101340.00
2022-08-10T20:04:57.247Z,101338.47
2022-08-10T20:07:36.235Z,101334.25
2022-08-10T20:10:18.418Z,101337.97
2022-08-10T20:13:02.663Z,101338.78
2022-08-10T20:15:42.281Z,101338.88
2022-08-10T20:18:18.752Z,101333.63
2022-08-10T20:20:54.023Z,101339.91
2022-08-10T20:23:28.698Z,101343.59
2022-08-10T20:26:02.149Z,101340.19
2022-08-10T20:28:42.565Z,101341.28
2022-08-10T20:31:17.265Z,101345.84
2022-08-10T20:33:58.635Z,101334.47
2022-08-10T20:36:33.198Z,101338.97
2022-08-10T20:39:16.361Z,101338.25
2022-08-10T20:42:04.644Z,101336.47
2022-08-10T20:44:50.651Z,101333.00
2022-08-10T20:47:42.588Z,101343.69
2022-08-10T20:50:36.877Z,101343.75
2022-08-10T20:53:14.304Z,101345.59
2022-08-10T20:55:59.667Z,101347.41
2022-08-10T20:58:52.538Z,101345.69
2022-08-10T21:02:06.987Z,101350.19
2022-08-10T21:04:50.208Z,101347.63
2022-08-10T21:08:05.524Z,101351.25
2022-08-10T21:10:56.205Z,101342.56
2022-08-10T21:14:02.685Z,101345.28
2022-08-10T21:17:03.349Z,101350.72
2022-08-10T21:20:09.771Z,101347.38
2022-08-10T21:22:45.018Z,101348.34
2022-08-10T21:25:19.435Z,101346.69
2022-08-10T21:28:29.572Z,101346.78
2022-08-10T21:31:25.731Z,101345.13
2022-08-10T21:34:12.496Z,101339.88
2022-08-10T21:36:51.948Z,101344.38
2022-08-10T21:39:50.665Z,101347.13
2022-08-10T21:42:57.602Z,101339.25
2022-08-10T21:45:59.659Z,101349.81
2022-08-10T21:49:01.679Z,101349.88
2022-08-10T21:52:04.021Z,101350.78
2022-08-10T21:55:00.791Z,101352.72
2022-08-10T21:58:03.290Z,101362.59
2022-08-10T22:00:51.895Z,101367.94
2022-08-10T22:03:40.510Z,101360.97
2022-08-10T22:06:32.057Z,101356.59
2022-08-10T22:09:27.619Z,101352.31
2022-08-10T22:12:31.967Z,101349.84
2022-08-10T22:16:03.851Z,101353.34
2022-08-10T22:18:58.887Z,101350.75
2022-08-10T22:22:05.498Z,101352.53
2022-08-10T22:25:20.638Z,101357.84
2022-08-10T22:28:17.507Z,101355.19
2022-08-10T22:31:30.762Z,101354.41
2022-08-10T22:34:40.681Z,101353.56
2022-08-10T22:37:47.353Z,101348.38
2022-08-10T22:40:41.180Z,101349.28
2022-08-10T22:43:40.747Z,101352.03
2022-08-10T22:46:37.452Z,101346.78
2022-08-10T22:49:06.014Z,101339.81
2022-08-10T22:51:52.855Z,101336.34
2022-08-10T22:54:46.349Z,101343.44
2022-08-10T22:57:36.462Z,101339.06
2022-08-10T23:00:16.045Z,101338.22
2022-08-10T23:02:54.336Z,101335.59
2022-08-10T23:05:32.314Z,101350.59
2022-08-10T23:08:11.693Z,101346.22
2022-08-10T23:11:04.398Z,101340.13
2022-08-10T23:13:42.227Z,101345.41
2022-08-10T23:16:37.206Z,101334.91
2022-08-10T23:19:17.150Z,101339.34
2022-08-10T23:22:03.409Z,101337.63
2022-08-10T23:24:37.699Z,101335.84
2022-08-10T23:27:12.685Z,101336.78
2022-08-10T23:30:10.761Z,101328.88
2022-08-10T23:32:44.751Z,101330.69
2022-08-10T23:36:27.724Z,101323.66
2022-08-10T23:38:05.842Z,101327.22
2022-08-10T23:40:35.572Z,101328.13
2022-08-10T23:43:06.728Z,101333.41
2022-08-10T23:45:52.360Z,101333.41
2022-08-10T23:48:24.918Z,101329.03
2022-08-10T23:50:59.325Z,101323.78
2022-08-10T23:53:33.641Z,101325.53
2022-08-10T23:56:08.758Z,101321.16
2022-08-10T23:58:43.509Z,101322.03
